Vrsac, Serbia

5:54 AM CET on October 31, 2014 (GMT +0100)
Vrsac | Change Station
CLOSE
Current Station
Airport
Location: Vrsac,
Elevation: 279 ft
Nearby Weather Stations

Elev 279 ft 45.15 °N, 21.31 °E | Updated 24 minutes ago

Mostly Cloudy
Mostly Cloudy
41 °F
Feels Like 41 °F
N
2
Wind Variable Wind from WNW

Today
High -- | Low -- °F
--% Chance of Precip.
Yesterday
High -- | Low -- °F
Precip. -- in
6:11 AM 4:24 PM
Waxing Crescent, 51% visible
Pressure 30.33 in
Visibility 2.5 miles
Clouds Mostly Cloudy 3300 ft
Dew Point 41 °F
Humidity 100%
Rainfall 0.00 in
Snow Depth Not available.
UV 0 out of 12
Pollen Not available.
Air Quality Not available.
Flu Activity Not available.
METAR LYVR 310430Z 30002KT 4000 BR BKN033 05/05 Q1027 NOSIG

More Conditions Fewer Conditions

Pressure 30.33 in
Visibility 2.5 miles
Clouds Mostly Cloudy 3300 ft
Dew Point 41 °F
Humidity 100%
Rainfall 0.00 in
Snow Depth Not available.
UV 0 out of 12
Pollen Not available.
Air Quality Not available.
Flu Activity Not available.
METAR LYVR 310430Z 30002KT 4000 BR BKN033 05/05 Q1027 NOSIG

More Conditions Fewer Conditions

10-Day Weather Forecast

Almanac

Astronomy

Oct. 31, 2014 Rise Set
Actual Time
Civil Twilight
Nautical Twilight
Astronomical Twilight
Moon
Length of Visible Light
Length of Day
Tomorrow will be .
, % of the Moon is Illuminated

Today's Extremes

Country Highs Country Lows

Community

WunderPhotos

Upload Photos

1,766,567 photos uploaded!

WunderBlogs® & News

Nearby

Air Quality

  Air Quality AQ Index Pollutant
Not available.

Snow Depth

Station Depth Elevation

Earthquake Activity

City Distance Mag. Time & Date
Minimum magnitude displayed is 2.5.

Coastal Water Temperatures

Place Temperature

Nearby Weather Stations